createdAt,value
2017-04-21T00:00:44.569Z,978.06
2017-04-21T00:01:54.820Z,978.11
2017-04-21T00:03:04.760Z,978.06
2017-04-21T00:04:15.014Z,978.08
2017-04-21T00:05:25.268Z,977.96
2017-04-21T00:06:35.526Z,978.02
2017-04-21T00:07:45.788Z,977.99
2017-04-21T00:08:56.041Z,977.98
2017-04-21T00:10:06.299Z,977.89
2017-04-21T00:11:16.276Z,977.91
2017-04-21T00:12:26.218Z,977.85
2017-04-21T00:13:36.497Z,977.92
2017-04-21T00:14:46.813Z,977.95
2017-04-21T00:15:57.078Z,977.93
2017-04-21T00:17:07.018Z,977.89
2017-04-21T00:18:17.268Z,977.94
2017-04-21T00:19:27.533Z,977.87
2017-04-21T00:20:37.794Z,977.83
2017-04-21T00:21:48.044Z,977.85
2017-04-21T00:22:58.301Z,977.85
2017-04-21T00:24:08.554Z,977.84
2017-04-21T00:25:18.890Z,977.87
2017-04-21T00:26:28.524Z,977.88
2017-04-21T00:27:38.790Z,977.85
2017-04-21T00:28:49.042Z,977.86
2017-04-21T00:30:01.302Z,977.85
2017-04-21T00:31:11.244Z,977.78
2017-04-21T00:32:21.190Z,977.77
2017-04-21T00:33:31.438Z,977.74
2017-04-21T00:34:41.694Z,977.81
2017-04-21T00:35:51.946Z,977.71
2017-04-21T00:37:02.202Z,977.81
2017-04-21T00:38:12.459Z,977.7
2017-04-21T00:39:22.402Z,977.72
2017-04-21T00:40:32.655Z,977.66
2017-04-21T00:41:42.593Z,977.65
2017-04-21T00:42:52.849Z,977.66
2017-04-21T00:44:02.785Z,977.62
2017-04-21T00:45:13.043Z,977.61
2017-04-21T00:46:23.299Z,977.6
2017-04-21T00:47:33.603Z,977.58
2017-04-21T00:48:43.859Z,977.57
2017-04-21T00:49:54.111Z,977.54
2017-04-21T00:51:04.362Z,977.6
2017-04-21T00:52:14.616Z,977.55
2017-04-21T00:53:24.238Z,977.52
2017-04-21T00:54:34.486Z,977.55
2017-04-21T00:55:44.741Z,977.57
2017-04-21T00:56:54.998Z,977.58
2017-04-21T00:58:04.934Z,977.56
2017-04-21T00:59:15.185Z,977.56
2017-04-21T01:00:25.445Z,977.49
2017-04-21T01:01:35.383Z,977.5
2017-04-21T01:02:45.333Z,977.54
2017-04-21T01:03:55.662Z,977.49
2017-04-21T01:05:05.988Z,977.51
2017-04-21T01:06:16.343Z,977.48
2017-04-21T01:07:26.826Z,977.47
2017-04-21T01:08:37.079Z,977.46
2017-04-21T01:09:47.339Z,977.4
2017-04-21T01:10:57.610Z,977.37
2017-04-21T01:12:07.880Z,977.41
2017-04-21T01:13:17.828Z,977.43
2017-04-21T01:14:28.086Z,977.34
2017-04-21T01:15:38.346Z,977.34
2017-04-21T01:16:48.599Z,977.29
2017-04-21T01:17:58.554Z,977.3
2017-04-21T01:19:08.805Z,977.32
2017-04-21T01:20:19.060Z,977.31
2017-04-21T01:21:29.318Z,977.32
2017-04-21T01:22:39.569Z,977.29
2017-04-21T01:23:49.820Z,977.32
2017-04-21T01:24:59.758Z,977.29
2017-04-21T01:26:09.736Z,977.29
2017-04-21T01:27:19.997Z,977.2
2017-04-21T01:28:29.933Z,977.22
2017-04-21T01:29:40.191Z,977.17
2017-04-21T01:30:50.136Z,977.16
2017-04-21T01:32:00.389Z,977.22
2017-04-21T01:33:10.337Z,977.18
2017-04-21T01:34:20.291Z,977.18
2017-04-21T01:35:30.235Z,977.1
2017-04-21T01:36:39.862Z,977.14
2017-04-21T01:37:49.822Z,977.1
2017-04-21T01:39:00.072Z,977.09
2017-04-21T01:40:10.328Z,977.06
2017-04-21T01:41:20.581Z,977.07
2017-04-21T01:42:30.838Z,977.08
2017-04-21T01:43:41.237Z,977.06
2017-04-21T01:44:51.496Z,977.05
2017-04-21T01:46:01.436Z,977.08
2017-04-21T01:47:11.692Z,977.08
2017-04-21T01:48:21.993Z,977.05
2017-04-21T01:49:32.256Z,977.04
2017-04-21T01:50:42.513Z,977.03
2017-04-21T01:51:52.776Z,977
2017-04-21T01:53:03.033Z,977
2017-04-21T01:54:12.972Z,976.96
2017-04-21T01:55:23.242Z,976.95
2017-04-21T01:56:33.513Z,976.9
2017-04-21T01:57:43.763Z,976.93
2017-04-21T01:58:54.017Z,976.94
2017-04-21T02:00:04.281Z,976.94
2017-04-21T02:01:14.541Z,976.94
2017-04-21T02:02:24.798Z,976.93
2017-04-21T02:03:35.050Z,976.95
2017-04-21T02:04:45.016Z,976.89
2017-04-21T02:05:55.275Z,976.85
2017-04-21T02:07:05.531Z,976.82
2017-04-21T02:08:15.786Z,976.81
2017-04-21T02:09:26.043Z,976.82
2017-04-21T02:10:36.299Z,976.8
2017-04-21T02:11:46.545Z,976.78
2017-04-21T02:12:56.486Z,976.76
2017-04-21T02:14:06.733Z,976.73
2017-04-21T02:15:16.371Z,976.67
2017-04-21T02:16:26.326Z,976.68
2017-04-21T02:17:36.580Z,976.7
2017-04-21T02:18:46.833Z,976.68
2017-04-21T02:19:56.830Z,976.69
2017-04-21T02:21:07.215Z,976.57
2017-04-21T02:22:17.152Z,976.66
2017-04-21T02:23:27.415Z,976.63
2017-04-21T02:24:37.708Z,976.59
2017-04-21T02:25:47.644Z,976.67
2017-04-21T02:26:57.899Z,976.6
2017-04-21T02:28:08.161Z,976.6
2017-04-21T02:29:17.788Z,976.57
2017-04-21T02:30:27.724Z,976.48
2017-04-21T02:31:37.664Z,976.45
2017-04-21T02:32:47.974Z,976.5
2017-04-21T02:33:58.235Z,976.46
2017-04-21T02:35:08.494Z,976.46
2017-04-21T02:36:18.743Z,976.53
2017-04-21T02:37:28.990Z,976.48
2017-04-21T02:38:38.930Z,976.49
2017-04-21T02:39:49.197Z,976.45
2017-04-21T02:40:58.829Z,976.44
2017-04-21T02:42:09.087Z,976.44
2017-04-21T02:43:19.025Z,976.47
2017-04-21T02:44:29.290Z,976.44
2017-04-21T02:45:39.546Z,976.45
2017-04-21T02:46:49.791Z,976.45
2017-04-21T02:48:00.046Z,976.44
2017-04-21T02:49:10.312Z,976.39
2017-04-21T02:50:20.827Z,976.36
2017-04-21T02:51:31.079Z,976.31
2017-04-21T02:52:41.343Z,976.39
2017-04-21T02:53:51.599Z,976.39
2017-04-21T02:55:01.855Z,976.28
2017-04-21T02:56:11.795Z,976.29
2017-04-21T02:57:22.059Z,976.27
2017-04-21T02:58:32.418Z,976.32
2017-04-21T02:59:42.839Z,976.27
2017-04-21T03:00:53.104Z,976.25
2017-04-21T03:02:03.369Z,976.25
2017-04-21T03:03:13.666Z,976.21
2017-04-21T03:04:23.619Z,976.18
2017-04-21T03:05:33.874Z,976.14
2017-04-21T03:06:44.129Z,976.16
2017-04-21T03:07:54.378Z,976.15
2017-04-21T03:09:04.633Z,976.11
2017-04-21T03:10:14.884Z,976.03
2017-04-21T03:11:25.135Z,976.01
2017-04-21T03:12:35.388Z,976
2017-04-21T03:13:45.648Z,976.01
2017-04-21T03:14:55.643Z,976.03
2017-04-21T03:16:05.595Z,976.03
2017-04-21T03:17:15.225Z,975.96
2017-04-21T03:18:25.492Z,975.98
2017-04-21T03:19:37.902Z,975.98
2017-04-21T03:20:48.168Z,975.95
2017-04-21T03:21:58.416Z,975.92
2017-04-21T03:23:08.674Z,975.96
2017-04-21T03:24:18.928Z,975.89
2017-04-21T03:25:28.920Z,975.95
2017-04-21T03:26:39.186Z,975.92
2017-04-21T03:27:49.440Z,975.92
2017-04-21T03:28:59.699Z,975.85
2017-04-21T03:30:09.959Z,975.83
2017-04-21T03:31:24.517Z,975.84
2017-04-21T03:32:34.837Z,975.82
2017-04-21T03:33:45.154Z,975.78
2017-04-21T03:34:55.731Z,975.76
2017-04-21T03:36:06.156Z,975.79
2017-04-21T03:37:16.144Z,975.73
2017-04-21T03:38:26.085Z,975.74
2017-04-21T03:39:36.334Z,975.71
2017-04-21T03:40:46.592Z,975.64
2017-04-21T03:41:56.845Z,975.61
2017-04-21T03:43:07.150Z,975.61
2017-04-21T03:44:17.407Z,975.58
2017-04-21T03:45:27.665Z,975.56
2017-04-21T03:46:37.606Z,975.5
2017-04-21T03:47:47.859Z,975.56
2017-04-21T03:48:58.186Z,975.49
2017-04-21T03:50:08.456Z,975.5
2017-04-21T03:51:18.393Z,975.41
2017-04-21T03:52:28.649Z,975.44
2017-04-21T03:53:38.906Z,975.37
2017-04-21T03:54:49.206Z,975.34
2017-04-21T03:55:59.466Z,975.28
2017-04-21T03:57:09.732Z,975.34
2017-04-21T03:58:19.679Z,975.34
2017-04-21T03:59:29.951Z,975.3
2017-04-21T04:00:40.257Z,975.32
2017-04-21T04:01:50.197Z,975.29
2017-04-21T04:03:00.452Z,975.32
2017-04-21T04:04:10.399Z,975.33
2017-04-21T04:05:20.681Z,975.36
2017-04-21T04:06:30.982Z,975.3
2017-04-21T04:07:41.239Z,975.35
2017-04-21T04:08:51.494Z,975.29
2017-04-21T04:10:01.568Z,975.33
2017-04-21T04:11:11.652Z,975.34
2017-04-21T04:12:21.646Z,975.26
2017-04-21T04:13:31.900Z,975.3
2017-04-21T04:14:41.849Z,975.28
2017-04-21T04:15:51.796Z,975.27
2017-04-21T04:17:02.059Z,975.24
2017-04-21T04:18:12.367Z,975.3
2017-04-21T04:19:22.311Z,975.24
2017-04-21T04:20:32.266Z,975.22
2017-04-21T04:21:42.517Z,975.21
2017-04-21T04:22:52.777Z,975.2
2017-04-21T04:24:03.239Z,975.24
2017-04-21T04:25:13.501Z,975.22
2017-04-21T04:26:23.752Z,975.23
2017-04-21T04:27:33.689Z,975.17
2017-04-21T04:28:43.946Z,975.14
2017-04-21T04:29:54.250Z,975.17
2017-04-21T04:31:04.199Z,975.15
2017-04-21T04:32:14.453Z,975.14
2017-04-21T04:33:24.713Z,975.13
2017-04-21T04:34:34.972Z,975.13
2017-04-21T04:35:44.966Z,975.09
2017-04-21T04:36:55.232Z,975.16
2017-04-21T04:38:05.486Z,975.12
2017-04-21T04:39:15.430Z,975.15
2017-04-21T04:40:25.689Z,975.16
2017-04-21T04:41:35.995Z,975.17
2017-04-21T04:42:46.386Z,975.13
2017-04-21T04:43:56.663Z,975.2
2017-04-21T04:45:07.084Z,975.18
2017-04-21T04:46:17.335Z,975.2
2017-04-21T04:47:27.637Z,975.18
2017-04-21T04:48:37.901Z,975.18
2017-04-21T04:49:48.155Z,975.17
2017-04-21T04:50:58.423Z,975.16
2017-04-21T04:52:08.685Z,975.17
2017-04-21T04:53:18.989Z,975.15
2017-04-21T04:54:29.250Z,975.14
2017-04-21T04:55:39.513Z,975.08
2017-04-21T04:56:49.775Z,975.07
2017-04-21T04:58:00.027Z,975.08
2017-04-21T04:59:10.332Z,975.05
2017-04-21T05:00:20.596Z,974.99
2017-04-21T05:01:30.856Z,975.02
2017-04-21T05:02:41.112Z,974.97
2017-04-21T05:03:51.045Z,974.98
2017-04-21T05:05:01.352Z,974.95
2017-04-21T05:06:11.622Z,974.95
2017-04-21T05:07:21.571Z,974.9
2017-04-21T05:08:31.836Z,975.01
2017-04-21T05:09:42.091Z,974.99
2017-04-21T05:10:52.397Z,974.99
2017-04-21T05:12:02.340Z,975.05
2017-04-21T05:13:12.596Z,974.9
2017-04-21T05:14:22.223Z,974.93
2017-04-21T05:15:32.476Z,974.96
2017-04-21T05:16:42.470Z,974.83
2017-04-21T05:17:52.726Z,974.87
2017-04-21T05:19:02.981Z,974.88
2017-04-21T05:20:13.377Z,974.9
2017-04-21T05:21:23.636Z,974.87
2017-04-21T05:22:33.945Z,974.88
2017-04-21T05:23:44.204Z,974.78
2017-04-21T05:24:54.460Z,974.77
2017-04-21T05:26:04.749Z,974.76
2017-04-21T05:27:14.698Z,974.68
2017-04-21T05:28:25.005Z,974.72
2017-04-21T05:29:35.303Z,974.79
2017-04-21T05:30:45.558Z,974.76
2017-04-21T05:31:55.814Z,974.78
2017-04-21T05:33:06.075Z,974.77
2017-04-21T05:34:16.380Z,974.67
2017-04-21T05:35:26.654Z,974.79
2017-04-21T05:36:36.598Z,974.75
2017-04-21T05:37:46.859Z,974.76
2017-04-21T05:38:57.132Z,974.73
2017-04-21T05:40:07.438Z,974.74
2017-04-21T05:41:17.694Z,974.63
2017-04-21T05:42:27.949Z,974.69
2017-04-21T05:43:38.211Z,974.7
2017-04-21T05:44:48.470Z,974.64
2017-04-21T05:45:58.777Z,974.7
2017-04-21T05:47:08.721Z,974.59
2017-04-21T05:48:18.976Z,974.54
2017-04-21T05:49:28.932Z,974.57
2017-04-21T05:50:38.880Z,974.55
2017-04-21T05:51:49.190Z,974.58
2017-04-21T05:52:59.443Z,974.57
2017-04-21T05:54:09.696Z,974.57
2017-04-21T05:55:20.290Z,974.58
2017-04-21T05:56:30.541Z,974.53
2017-04-21T05:57:40.848Z,974.56
2017-04-21T05:58:51.108Z,974.56
2017-04-21T06:00:01.455Z,974.55
2017-04-21T06:01:11.715Z,974.56
2017-04-21T06:02:21.970Z,974.51
2017-04-21T06:03:32.329Z,974.53
2017-04-21T06:04:42.272Z,974.51
2017-04-21T06:05:52.216Z,974.43
2017-04-21T06:07:02.502Z,974.45
2017-04-21T06:08:12.762Z,974.47
2017-04-21T06:09:23.069Z,974.4
2017-04-21T06:10:33.329Z,974.29
2017-04-21T06:11:43.298Z,974.32
2017-04-21T06:12:53.565Z,974.28
2017-04-21T06:14:03.834Z,974.27
2017-04-21T06:15:13.835Z,974.28
2017-04-21T06:16:23.780Z,974.34
2017-04-21T06:17:34.036Z,974.34
2017-04-21T06:18:44.298Z,974.4
2017-04-21T06:19:54.555Z,974.46
2017-04-21T06:21:06.553Z,974.41
2017-04-21T06:22:16.811Z,974.44
2017-04-21T06:23:27.069Z,974.5
2017-04-21T06:24:37.329Z,974.45
2017-04-21T06:25:47.271Z,974.51
2017-04-21T06:26:57.584Z,974.38
2017-04-21T06:28:07.842Z,974.42
2017-04-21T06:29:18.111Z,974.37
2017-04-21T06:30:28.374Z,974.47
2017-04-21T06:31:38.646Z,974.42
2017-04-21T06:32:49.179Z,974.37
2017-04-21T06:33:59.437Z,974.31
2017-04-21T06:35:09.698Z,974.46
2017-04-21T06:36:19.965Z,974.42
2017-04-21T06:37:30.218Z,974.43
2017-04-21T06:38:40.543Z,974.35
2017-04-21T06:39:50.502Z,974.33
2017-04-21T06:41:00.759Z,974.19
2017-04-21T06:42:11.018Z,974.33
2017-04-21T06:43:21.275Z,974.21
2017-04-21T06:44:31.591Z,974.15
2017-04-21T06:45:41.851Z,974.12
2017-04-21T06:46:52.112Z,974.24
2017-04-21T06:48:02.379Z,974.08
2017-04-21T06:49:12.644Z,974.17
2017-04-21T06:50:23.166Z,974.05
2017-04-21T06:51:33.427Z,973.99
2017-04-21T06:52:43.692Z,974.03
2017-04-21T06:53:53.959Z,974.09
2017-04-21T06:55:04.222Z,974.19
2017-04-21T06:56:14.527Z,974.1
2017-04-21T06:57:24.788Z,974.07
2017-04-21T06:58:35.050Z,974
2017-04-21T06:59:45.317Z,973.95
2017-04-21T07:00:55.269Z,974.08
2017-04-21T07:02:05.468Z,973.97
2017-04-21T07:03:15.414Z,973.86
2017-04-21T07:04:25.684Z,974.09
2017-04-21T07:05:35.952Z,973.87
2017-04-21T07:06:46.370Z,973.96
2017-04-21T07:07:56.680Z,973.91
2017-04-21T07:09:07.113Z,973.86
2017-04-21T07:10:17.380Z,973.87
2017-04-21T07:11:27.633Z,973.85
2017-04-21T07:12:37.888Z,974.26
2017-04-21T07:13:48.199Z,974.02
2017-04-21T07:14:58.472Z,974.03
2017-04-21T07:16:08.416Z,974.23
2017-04-21T07:17:18.363Z,973.71
2017-04-21T07:18:28.621Z,973.91
2017-04-21T07:19:38.949Z,973.91
2017-04-21T07:20:49.205Z,973.91
2017-04-21T07:21:59.146Z,973.88
2017-04-21T07:23:09.405Z,973.89
2017-04-21T07:24:19.674Z,974.03
2017-04-21T07:25:30.024Z,973.84
2017-04-21T07:26:40.284Z,974.06
2017-04-21T07:27:50.549Z,974.01
2017-04-21T07:29:00.504Z,974.09
2017-04-21T07:30:10.769Z,973.93
2017-04-21T07:31:21.110Z,973.94
2017-04-21T07:32:31.056Z,973.86
2017-04-21T07:33:41.314Z,973.86
2017-04-21T07:34:51.572Z,974.33
2017-04-21T07:36:01.522Z,973.9
2017-04-21T07:37:12.276Z,973.95
2017-04-21T07:38:22.539Z,974.01
2017-04-21T07:39:32.876Z,973.85
2017-04-21T07:40:43.337Z,973.83
2017-04-21T07:41:53.628Z,973.81
2017-04-21T07:43:03.952Z,973.87
2017-04-21T07:44:13.903Z,974.02
2017-04-21T07:45:24.165Z,973.91
2017-04-21T07:46:34.423Z,973.88
2017-04-21T07:47:44.683Z,973.88
2017-04-21T07:48:54.683Z,973.98
2017-04-21T07:50:04.947Z,973.77
2017-04-21T07:51:15.214Z,973.79
2017-04-21T07:52:25.466Z,973.64
2017-04-21T07:53:35.725Z,973.83
2017-04-21T07:54:45.725Z,973.76
2017-04-21T07:55:55.667Z,973.81
2017-04-21T07:57:05.936Z,973.84
2017-04-21T07:58:16.252Z,973.8
2017-04-21T07:59:26.195Z,973.88
2017-04-21T08:00:36.462Z,973.9
2017-04-21T08:02:27.181Z,973.9
2017-04-21T08:03:36.819Z,973.64
2017-04-21T08:04:47.083Z,973.68
2017-04-21T08:05:57.340Z,973.54
2017-04-21T08:07:07.289Z,973.56
2017-04-21T08:08:17.234Z,973.52
2017-04-21T08:09:27.489Z,973.46
2017-04-21T08:10:37.118Z,973.54
2017-04-21T08:11:47.070Z,973.31
2017-04-21T08:12:56.695Z,973.36
2017-04-21T08:14:06.638Z,973.47
2017-04-21T08:15:16.894Z,973.48
2017-04-21T08:16:27.152Z,973.25
2017-04-21T08:17:37.106Z,973.38
2017-04-21T08:18:47.053Z,973.24
2017-04-21T08:19:57.313Z,973.24
2017-04-21T08:21:06.639Z,973.33
2017-04-21T08:22:16.578Z,973.19
2017-04-21T08:23:26.830Z,973.27
2017-04-21T08:24:37.082Z,973.16
2017-04-21T08:25:47.030Z,973.22
2017-04-21T08:26:57.303Z,973.18
2017-04-21T08:28:07.260Z,973.12
2017-04-21T08:29:17.523Z,973.33
2017-04-21T08:30:27.784Z,973.07
2017-04-21T08:31:38.102Z,973.16
2017-04-21T08:32:47.732Z,973.22
2017-04-21T08:33:57.991Z,973.49
2017-04-21T08:35:08.001Z,973.2
2017-04-21T08:36:17.647Z,973.25
2017-04-21T08:37:27.901Z,973.35
2017-04-21T08:38:37.854Z,973.3
2017-04-21T08:39:48.112Z,973.21
2017-04-21T08:40:58.381Z,973.16
2017-04-21T08:42:08.639Z,973.29
2017-04-21T08:43:18.905Z,973.24
2017-04-21T08:44:28.846Z,973.25
2017-04-21T08:45:39.109Z,973.6
2017-04-21T08:46:49.368Z,973.25
2017-04-21T08:47:59.639Z,973.26
2017-04-21T08:49:09.587Z,973.32
2017-04-21T08:50:19.865Z,973.44
2017-04-21T08:51:29.811Z,973.41
2017-04-21T08:52:40.068Z,973.6
2017-04-21T08:53:50.332Z,973.23
2017-04-21T08:55:00.589Z,973.38
2017-04-21T08:56:10.547Z,973.26
2017-04-21T08:57:20.488Z,973.31
2017-04-21T08:58:30.753Z,973.3
2017-04-21T08:59:41.014Z,973.36
2017-04-21T09:00:50.957Z,973.53
2017-04-21T09:02:01.212Z,973.27
2017-04-21T09:03:11.471Z,973.24
2017-04-21T09:04:21.418Z,973.46
2017-04-21T09:05:31.687Z,973.26
2017-04-21T09:06:41.634Z,973.27
2017-04-21T09:07:51.579Z,973.38
2017-04-21T09:09:01.844Z,973.35
2017-04-21T09:10:12.104Z,973.3
2017-04-21T09:11:22.369Z,973.34
2017-04-21T09:12:32.311Z,973.22
2017-04-21T09:13:42.253Z,973.08
2017-04-21T09:14:52.527Z,973.16
2017-04-21T09:16:02.482Z,973.17
2017-04-21T09:17:12.747Z,973.18
2017-04-21T09:18:23.199Z,973.15
2017-04-21T09:19:33.555Z,973.19
2017-04-21T09:20:43.817Z,973.21
2017-04-21T09:21:54.209Z,973.23
2017-04-21T09:23:03.225Z,973.25
2017-04-21T09:24:13.175Z,973.12
2017-04-21T09:25:23.133Z,973.38
2017-04-21T09:26:33.083Z,973.27
2017-04-21T09:27:43.335Z,973.34
2017-04-21T09:28:53.595Z,973.2
2017-04-21T09:30:03.867Z,973.29
2017-04-21T09:31:13.810Z,973.2
2017-04-21T09:35:33.550Z,973.02
2017-04-21T09:37:22.993Z,973.01
2017-04-21T09:38:32.940Z,973.17
2017-04-21T09:39:43.205Z,973.07
2017-04-21T09:40:53.467Z,972.98
2017-04-21T09:42:03.725Z,973.17
2017-04-21T09:43:41.703Z,973.31
2017-04-21T09:45:16.372Z,973.39
2017-04-21T09:46:26.639Z,973.22
2017-04-21T09:47:36.906Z,972.98
2017-04-21T09:48:46.856Z,972.98
2017-04-21T09:49:57.117Z,973.03
2017-04-21T09:51:22.214Z,973.35
2017-04-21T10:02:31.019Z,972.96
2017-04-21T10:09:35.992Z,973.05
2017-04-21T10:10:46.256Z,972.79
2017-04-21T10:11:56.512Z,972.91
2017-04-21T10:13:06.776Z,972.91
2017-04-21T10:14:17.047Z,973.01
2017-04-21T10:15:27.305Z,973.14
2017-04-21T10:16:37.567Z,972.85
2017-04-21T10:17:47.516Z,972.77
2017-04-21T10:18:57.777Z,972.73
2017-04-21T10:20:08.041Z,973.08
2017-04-21T10:21:17.986Z,973.07
2017-04-21T10:22:28.242Z,972.86
2017-04-21T10:23:38.499Z,972.8
2017-04-21T10:24:48.762Z,972.81
2017-04-21T10:25:59.018Z,972.68
2017-04-21T10:27:09.271Z,973.17
2017-04-21T10:28:19.215Z,972.75
2017-04-21T10:29:29.481Z,972.86
2017-04-21T10:30:39.740Z,972.63
2017-04-21T10:31:50.003Z,973
2017-04-21T10:33:00.267Z,972.94
2017-04-21T10:34:10.587Z,972.75
2017-04-21T10:35:20.594Z,972.63
2017-04-21T10:36:30.953Z,972.69
2017-04-21T10:37:41.360Z,972.57
2017-04-21T10:38:51.617Z,972.49
2017-04-21T10:40:01.873Z,972.64
2017-04-21T10:41:12.125Z,972.55
2017-04-21T10:42:22.063Z,973.11
2017-04-21T10:43:32.322Z,972.46
2017-04-21T10:44:42.585Z,972.52
2017-04-21T10:45:52.846Z,972.8
2017-04-21T10:47:03.121Z,972.51
2017-04-21T10:48:13.381Z,972.39
2017-04-21T10:49:23.640Z,972.57
2017-04-21T10:50:33.902Z,972.45
2017-04-21T10:51:44.185Z,972.46
2017-04-21T10:52:54.445Z,972.37
2017-04-21T10:54:04.725Z,972.49
2017-04-21T10:55:14.987Z,972.58
2017-04-21T10:56:25.241Z,972.48
2017-04-21T10:57:35.493Z,972.49
2017-04-21T10:58:45.757Z,972.55
2017-04-21T10:59:56.019Z,972.63
2017-04-21T11:01:06.274Z,972.65
2017-04-21T11:02:16.702Z,972.42
2017-04-21T11:03:27.141Z,972.61
2017-04-21T11:04:37.510Z,972.48
2017-04-21T11:05:47.970Z,972.49
2017-04-21T11:06:57.916Z,972.47
2017-04-21T11:08:08.170Z,972.58
2017-04-21T11:09:18.115Z,972.6
2017-04-21T11:10:28.059Z,972.57
2017-04-21T11:11:38.314Z,972.48
2017-04-21T11:12:48.596Z,972.35
2017-04-21T11:13:58.858Z,972.28
2017-04-21T11:15:09.116Z,972.21
2017-04-21T11:16:19.078Z,972.29
2017-04-21T11:17:29.337Z,972.25
2017-04-21T11:18:39.602Z,972.5
2017-04-21T11:19:49.858Z,972.35
2017-04-21T11:21:00.109Z,972.38
2017-04-21T11:22:10.368Z,972.58
2017-04-21T11:23:20.630Z,972.82
2017-04-21T11:24:30.576Z,972.74
2017-04-21T11:25:40.561Z,973.23
2017-04-21T11:26:50.825Z,973.22
2017-04-21T11:28:01.086Z,972.69
2017-04-21T11:29:11.345Z,972.69
2017-04-21T11:30:21.626Z,972.84
2017-04-21T11:31:31.890Z,972.86
2017-04-21T11:32:41.841Z,973.14
2017-04-21T11:33:52.105Z,972.82
2017-04-21T11:35:02.373Z,972.54
2017-04-21T11:36:12.640Z,972.36
2017-04-21T11:37:23.023Z,973.08
2017-04-21T11:38:33.284Z,972.88
2017-04-21T11:39:43.556Z,972.62
2017-04-21T11:40:53.825Z,972.94
2017-04-21T11:42:04.089Z,973.03
2017-04-21T11:43:14.355Z,972.88
2017-04-21T11:44:24.619Z,973.28
2017-04-21T11:45:34.885Z,973.02
2017-04-21T11:46:45.156Z,973.05
2017-04-21T11:47:55.118Z,972.88
2017-04-21T11:49:05.389Z,972.92
2017-04-21T11:50:15.657Z,972.77
2017-04-21T11:51:25.617Z,972.97
2017-04-21T11:52:35.884Z,972.81
2017-04-21T11:53:45.841Z,973.44
2017-04-21T11:54:55.801Z,973.12
2017-04-21T11:56:06.084Z,973.37
2017-04-21T11:57:16.365Z,973.19
2017-04-21T11:58:26.639Z,973.45
2017-04-21T11:59:36.910Z,972.48
2017-04-21T12:00:47.183Z,972.9
2017-04-21T12:01:57.135Z,973
2017-04-21T12:03:07.409Z,973.15
2017-04-21T12:04:17.573Z,973.04
2017-04-21T12:05:28.143Z,973.12
2017-04-21T12:06:38.430Z,973.13
2017-04-21T12:07:48.706Z,973.85
2017-04-21T12:08:58.973Z,973.97
2017-04-21T12:10:09.248Z,973.77
2017-04-21T12:11:19.574Z,973.5
2017-04-21T12:12:29.853Z,973.33
2017-04-21T12:13:40.124Z,973.11
2017-04-21T12:14:50.397Z,973.24
2017-04-21T12:16:00.675Z,973.29
2017-04-21T12:17:10.944Z,973.43
2017-04-21T12:18:21.214Z,973.38
2017-04-21T12:19:31.491Z,972.86
2017-04-21T12:20:41.789Z,973.53
2017-04-21T12:21:52.058Z,971.97
2017-04-21T12:23:02.332Z,972.53
2017-04-21T12:24:12.608Z,971.99
2017-04-21T12:25:22.877Z,971.54
2017-04-21T12:26:33.142Z,974.06
2017-04-21T12:27:43.406Z,973.94
2017-04-21T12:28:53.693Z,973.53
2017-04-21T12:30:03.963Z,973.29
2017-04-21T12:31:13.602Z,973.47
2017-04-21T12:32:23.930Z,973.57
2017-04-21T12:33:33.888Z,973.26
2017-04-21T12:34:44.165Z,973.59
2017-04-21T12:35:54.437Z,973.6
2017-04-21T12:37:04.734Z,973.64
2017-04-21T12:38:15.003Z,973.64
2017-04-21T12:39:25.031Z,973.71
2017-04-21T12:40:35.308Z,973.4
2017-04-21T12:41:45.581Z,973.39
2017-04-21T12:42:55.542Z,973.3
2017-04-21T12:44:05.500Z,973.12
2017-04-21T12:45:15.461Z,973.07
2017-04-21T12:46:25.728Z,973.26
2017-04-21T12:47:35.683Z,972.99
2017-04-21T12:48:45.958Z,973.08
2017-04-21T12:49:56.237Z,973.06
2017-04-21T12:51:06.546Z,973.16
2017-04-21T12:52:16.815Z,972.91
2017-04-21T12:53:27.085Z,972.98
2017-04-21T12:54:37.362Z,973.33
2017-04-21T12:55:47.642Z,973.19
2017-04-21T12:56:57.914Z,971.34
2017-04-21T12:58:08.192Z,973.3
2017-04-21T12:59:18.151Z,972.88
2017-04-21T13:00:28.105Z,973.01
2017-04-21T13:01:38.378Z,973.2
2017-04-21T13:02:48.657Z,973.27
2017-04-21T13:03:58.925Z,973.42
2017-04-21T13:05:09.194Z,973.66
2017-04-21T13:06:19.460Z,973.53
2017-04-21T13:07:29.745Z,971.59
2017-04-21T13:08:40.290Z,971.49
2017-04-21T13:09:50.572Z,973.32
2017-04-21T13:11:00.859Z,972.05
2017-04-21T13:12:11.132Z,971.36
2017-04-21T13:13:21.454Z,971.43
2017-04-21T13:14:31.733Z,971.34
2017-04-21T13:15:42.003Z,971.44
2017-04-21T13:16:51.958Z,971.38
2017-04-21T13:18:02.229Z,971.26
2017-04-21T13:19:12.186Z,971.4
2017-04-21T13:20:22.144Z,971.2
2017-04-21T13:21:32.422Z,971.41
2017-04-21T13:22:42.685Z,971.57
2017-04-21T13:23:52.957Z,971.52
2017-04-21T13:25:03.227Z,971.47
2017-04-21T13:26:13.489Z,971.62
2017-04-21T13:27:23.444Z,971.79
2017-04-21T13:28:33.391Z,971.74
2017-04-21T13:29:43.347Z,971.77
2017-04-21T13:30:53.609Z,971.75
2017-04-21T13:32:03.875Z,971.58
2017-04-21T13:33:14.138Z,971.69
2017-04-21T13:34:23.781Z,971.45
2017-04-21T13:35:34.045Z,971.6
2017-04-21T13:36:44.304Z,971.68
2017-04-21T13:37:54.249Z,971.83
2017-04-21T13:39:04.513Z,971.84
2017-04-21T13:40:14.772Z,972.23
2017-04-21T13:41:25.026Z,972.91
2017-04-21T13:42:35.289Z,972.47
2017-04-21T13:43:45.552Z,972.29
2017-04-21T13:44:55.499Z,972.06
2017-04-21T13:46:05.761Z,972.27
2017-04-21T13:47:16.026Z,972.35
2017-04-21T13:48:26.122Z,972.16
2017-04-21T13:49:36.546Z,971.6
2017-04-21T13:50:47.188Z,972.25
2017-04-21T13:51:57.498Z,971.76
2017-04-21T13:53:07.761Z,971.93
2017-04-21T13:54:18.176Z,972.96
2017-04-21T13:55:28.455Z,972.29
2017-04-21T13:56:38.716Z,972
2017-04-21T13:57:48.981Z,971.89
2017-04-21T13:58:59.252Z,971.43
2017-04-21T14:00:09.518Z,971.36
2017-04-21T14:01:19.781Z,971.28
2017-04-21T14:02:30.042Z,971.33
2017-04-21T14:03:39.997Z,971.21
2017-04-21T14:04:50.273Z,971.2
2017-04-21T14:06:00.560Z,971.22
2017-04-21T14:07:10.506Z,971.41
2017-04-21T14:08:20.791Z,971.18
2017-04-21T14:09:31.082Z,971.21
2017-04-21T14:10:41.355Z,971.21
2017-04-21T14:11:51.621Z,971.19
2017-04-21T14:13:01.883Z,971.27
2017-04-21T14:14:12.142Z,971.16
2017-04-21T14:15:22.410Z,971.13
2017-04-21T14:16:32.358Z,971.22
2017-04-21T14:17:42.609Z,971.38
2017-04-21T14:18:52.559Z,971.38
2017-04-21T14:20:02.508Z,971.17
2017-04-21T14:21:12.150Z,971.26
2017-04-21T14:22:22.115Z,971.13
2017-04-21T14:23:32.368Z,971.1
2017-04-21T14:24:42.644Z,971.34
2017-04-21T14:25:52.909Z,971.07
2017-04-21T14:27:03.166Z,971.18
2017-04-21T14:28:13.428Z,971.22
2017-04-21T14:29:23.393Z,971.28
2017-04-21T14:30:33.655Z,971.33
2017-04-21T14:31:43.918Z,971.59
2017-04-21T14:32:53.861Z,971.78
2017-04-21T14:34:04.125Z,972.19
2017-04-21T14:35:14.378Z,973.18
2017-04-21T14:36:24.326Z,972.77
2017-04-21T14:37:34.585Z,973.36
2017-04-21T14:38:44.531Z,972.63
2017-04-21T14:39:54.795Z,972.7
2017-04-21T14:41:05.053Z,972.33
2017-04-21T14:42:14.997Z,972.17
2017-04-21T14:43:24.954Z,971.83
2017-04-21T14:44:35.214Z,971.48
2017-04-21T14:45:45.185Z,972.91
2017-04-21T14:46:55.446Z,975.19
2017-04-21T14:48:05.712Z,974.92
2017-04-21T14:49:15.659Z,974.74
2017-04-21T14:50:25.920Z,975.18
2017-04-21T14:51:36.176Z,975.28
2017-04-21T14:52:46.121Z,974.8
2017-04-21T14:53:56.388Z,975.12
2017-04-21T14:55:06.652Z,975.61
2017-04-21T14:56:16.912Z,975.36
2017-04-21T14:57:27.183Z,974.82
2017-04-21T14:58:37.148Z,974.89
2017-04-21T14:59:47.426Z,973.35
2017-04-21T15:00:57.692Z,974.97